Time;durP1;ratioP1;P1;durP2;ratioP2;P2;SDS_P1;SDS_P2;PMS_P1;PMS_P2;Temp;Humidity;BMP_temperature;BMP_pressure;BME280_temperature;BME280_humidity;BME280_pressure;Samples;Min_cycle;Max_cycle;Signal;HPM_P1;HPM_P2
2021/12/19 00:04:30;;;;;;;20.25;9.95;;;6.50;99.90;;;4.85;100.00;103169.38;2567799;30;138327;-41
2021/12/19 00:09:44;;;;;;;18.60;9.68;;;6.50;99.90;;;4.87;100.00;103159.28;2569078;30;139099;-41
2021/12/19 00:12:12;;;;;;;24.63;11.07;;;6.50;99.90;;;4.90;100.00;103161.75;2568742;30;137509;-40
2021/12/19 00:14:39;;;;;;;24.58;11.00;;;6.50;99.90;;;4.89;100.00;103163.59;2566758;30;138540;-40
2021/12/19 00:17:07;;;;;;;19.98;9.95;;;6.50;99.90;;;4.90;100.00;103153.66;2567584;30;136823;-41
2021/12/19 00:19:35;;;;;;;21.92;11.07;;;6.50;99.90;;;4.90;100.00;103156.34;2568640;30;138587;-40
2021/12/19 00:22:03;;;;;;;20.20;10.57;;;6.50;99.90;;;4.89;100.00;103154.63;2567995;30;136834;-41
2021/12/19 00:24:30;;;;;;;17.77;9.88;;;6.50;99.90;;;4.92;100.00;103153.53;2568078;30;139063;-41
2021/12/19 00:26:58;;;;;;;19.77;10.98;;;6.50;99.90;;;4.93;100.00;103144.44;2568341;30;136675;-41
2021/12/19 00:29:25;;;;;;;20.67;10.40;;;6.60;99.90;;;4.92;100.00;103140.00;2568545;30;138984;-41
2021/12/19 00:31:54;;;;;;;19.45;9.30;;;6.60;99.90;;;4.89;100.00;103143.81;2567566;30;138385;-40
2021/12/19 00:34:22;;;;;;;19.92;10.15;;;6.60;99.90;;;4.91;100.00;103147.25;2568112;30;137410;-41
2021/12/19 00:36:49;;;;;;;22.67;11.32;;;6.60;99.90;;;4.89;100.00;103150.06;2568366;30;137469;-41
2021/12/19 00:39:17;;;;;;;20.83;10.88;;;6.50;99.90;;;4.95;100.00;103140.63;2568285;30;138441;-41
2021/12/19 00:41:52;;;;;;;;;;;6.60;99.90;;;4.95;100.00;103140.63;2569900;30;136814;-41
2021/12/19 00:44:24;;;;;;;23.45;10.70;;;6.60;99.90;;;4.93;100.00;103137.19;2568498;30;137251;-41
2021/12/19 00:47:04;;;;;;;23.90;12.02;;;6.60;99.90;;;4.96;100.00;103136.94;2568274;30;137430;-41
2021/12/19 00:49:32;;;;;;;21.83;10.82;;;6.60;99.90;;;4.95;100.00;103148.75;2567938;30;138911;-41
2021/12/19 00:52:02;;;;;;;23.58;11.00;;;6.60;99.90;;;4.95;100.00;103135.22;2569003;30;138571;-41
2021/12/19 00:54:30;;;;;;;22.65;10.65;;;6.60;99.90;;;4.97;100.00;103141.38;2567147;30;137549;-41
2021/12/19 00:56:57;;;;;;;21.02;10.57;;;6.60;99.90;;;4.97;100.00;103138.66;2564750;30;137007;-40
2021/12/19 00:59:25;;;;;;;23.52;11.20;;;6.60;99.90;;;4.97;100.00;103135.94;2569821;30;138430;-41
2021/12/19 01:01:52;;;;;;;22.83;11.07;;;6.60;99.90;;;4.92;100.00;103132.75;2567344;30;138465;-41
2021/12/19 01:04:21;;;;;;;23.38;11.10;;;6.60;99.90;;;4.94;100.00;103127.22;2568286;30;137485;-41
2021/12/19 01:06:49;;;;;;;22.45;10.80;;;6.60;99.90;;;4.98;100.00;103126.84;2568933;30;138644;-41
2021/12/19 01:09:19;;;;;;;20.50;10.18;;;6.60;99.90;;;4.91;100.00;103125.63;2567467;30;138529;-40
2021/12/19 01:11:49;;;;;;;21.52;11.00;;;6.60;99.90;;;4.94;100.00;103119.13;2567785;30;138628;-41
2021/12/19 01:14:17;;;;;;;21.17;11.00;;;6.60;99.90;;;4.93;100.00;103128.22;2567072;30;139066;-41
2021/12/19 01:16:45;;;;;;;20.80;10.00;;;6.60;99.90;;;4.94;100.00;103117.25;2567456;30;137456;-41
2021/12/19 01:19:16;;;;;;;19.48;10.10;;;6.60;99.90;;;4.97;100.00;103113.47;2567085;30;139713;-40
2021/12/19 01:21:45;;;;;;;21.35;10.40;;;6.60;99.90;;;4.98;100.00;103110.63;2566847;30;136908;-41
2021/12/19 01:24:13;;;;;;;20.73;10.30;;;6.60;99.90;;;4.99;100.00;103117.75;2567262;30;138362;-40
2021/12/19 01:26:42;;;;;;;24.20;11.25;;;6.60;99.90;;;4.95;100.00;103115.44;2568076;30;138311;-41
2021/12/19 01:29:11;;;;;;;20.15;10.20;;;6.60;99.90;;;4.93;100.00;103115.53;2569066;30;139542;-41
2021/12/19 01:31:40;;;;;;;20.10;10.63;;;6.60;99.90;;;4.92;100.00;103110.25;2567439;30;138405;-41
2021/12/19 01:34:12;;;;;;;19.90;9.73;;;6.60;99.90;;;4.95;100.00;103110.84;2565181;30;138421;-41
2021/12/19 01:36:42;;;;;;;23.23;10.70;;;6.60;99.90;;;4.96;100.00;103109.88;2567351;30;138722;-40
2021/12/19 01:39:12;;;;;;;21.42;10.50;;;6.60;99.90;;;4.98;100.00;103107.91;2568358;30;138425;-40
2021/12/19 01:41:52;;;;;;;19.55;9.95;;;6.60;99.90;;;4.96;100.00;103093.66;2567694;30;138337;-41
2021/12/19 01:44:22;;;;;;;20.98;10.70;;;6.60;99.90;;;4.98;100.00;103101.66;2567036;30;138323;-41
2021/12/19 01:46:54;;;;;;;21.90;11.10;;;6.60;99.90;;;4.99;100.00;103101.53;2566205;30;137218;-41
2021/12/19 01:49:23;;;;;;;21.55;10.30;;;6.60;99.90;;;4.98;100.00;103094.38;2567310;30;138205;-41
2021/12/19 01:51:50;;;;;;;24.80;11.48;;;6.60;99.90;;;5.00;100.00;103097.00;2567673;30;137554;-41
2021/12/19 01:54:18;;;;;;;23.13;10.85;;;6.60;99.90;;;5.00;100.00;103097.84;2566188;30;136953;-40
2021/12/19 01:56:47;;;;;;;22.65;11.30;;;6.60;99.90;;;5.00;100.00;103097.00;2568298;30;137839;-41
2021/12/19 01:59:14;;;;;;;21.33;10.50;;;6.60;99.90;;;4.98;100.00;103099.78;2568114;30;138423;-40
2021/12/19 02:01:52;;;;;;;23.08;10.20;;;6.60;99.90;;;4.96;100.00;103095.50;2568567;30;137708;-41
2021/12/19 02:04:29;;;;;;;23.90;10.80;;;6.60;99.90;;;5.00;100.00;103095.13;2567258;30;138275;-41
2021/12/19 02:06:58;;;;;;;20.50;10.57;;;6.60;99.90;;;4.99;100.00;103093.41;2567958;30;137367;-41
2021/12/19 02:09:26;;;;;;;19.10;9.98;;;6.60;99.90;;;4.99;100.00;103096.09;2567703;30;138647;-41
2021/12/19 02:11:55;;;;;;;18.98;10.10;;;6.60;99.90;;;4.97;100.00;103094.53;2565545;30;137820;-41
2021/12/19 02:14:22;;;;;;;20.98;10.45;;;6.60;99.90;;;4.97;100.00;103081.00;2567742;30;138162;-41
2021/12/19 02:16:50;;;;;;;21.10;10.52;;;6.60;99.90;;;4.97;100.00;103081.84;2567602;30;138228;-40
2021/12/19 02:19:17;;;;;;;22.92;11.35;;;6.60;99.90;;;4.97;100.00;103079.13;2567986;30;138267;-41
2021/12/19 02:21:45;;;;;;;21.67;11.13;;;6.60;99.90;;;5.00;100.00;103088.88;2567634;30;136885;-41
2021/12/19 02:24:12;;;;;;;20.98;10.35;;;6.60;99.90;;;4.96;100.00;103074.72;2568251;30;138852;-41
2021/12/19 02:26:40;;;;;;;20.67;10.02;;;6.70;99.90;;;5.02;100.00;103076.09;2567498;30;137506;-41
2021/12/19 02:29:08;;;;;;;20.65;10.18;;;6.70;99.90;;;5.02;100.00;103073.38;2567533;30;138711;-41
2021/12/19 02:31:36;;;;;;;19.85;9.55;;;6.60;99.90;;;4.97;100.00;103081.84;2568804;30;137837;-41
2021/12/19 02:34:10;;;;;;;20.35;10.13;;;6.60;99.90;;;5.01;100.00;103079.78;2567698;30;138280;-40
2021/12/19 02:50:24;;;;;;;18.30;9.27;;;6.60;99.90;;;4.99;100.00;103055.53;2567739;30;137226;-41
2021/12/19 02:52:53;;;;;;;18.75;9.77;;;6.60;99.90;;;4.98;100.00;103056.50;2568170;30;136815;-41
2021/12/19 02:55:20;;;;;;;20.98;9.80;;;6.60;99.90;;;4.96;100.00;103058.47;2567582;30;138441;-41
2021/12/19 02:57:49;;;;;;;21.35;10.25;;;6.60;99.90;;;4.98;100.00;103061.06;2565810;30;138165;-40
2021/12/19 03:00:25;;;;;;;21.05;10.07;;;6.60;99.90;;;4.97;100.00;103051.22;2567778;30;139201;-41
2021/12/19 03:02:53;;;;;;;20.92;10.48;;;6.60;99.90;;;5.00;100.00;103043.72;2567013;30;137895;-40
2021/12/19 03:05:21;;;;;;;18.35;9.13;;;6.60;99.90;;;4.98;100.00;103048.41;2566849;30;139411;-40
2021/12/19 03:07:51;;;;;;;22.52;9.88;;;6.60;99.90;;;4.98;100.00;103039.44;2567639;30;137523;-40
2021/12/19 03:10:57;;;;;;;20.70;10.40;;;6.60;99.90;;;4.99;100.00;103041.16;2567734;30;138995;-40
2021/12/19 03:18:33;;;;;;;23.10;9.93;;;6.60;99.90;;;4.99;100.00;103031.19;2568196;30;137548;-41
2021/12/19 03:21:01;;;;;;;20.70;10.38;;;6.60;99.90;;;4.98;100.00;103024.03;2567829;30;138336;-41
2021/12/19 03:23:29;;;;;;;21.00;10.10;;;6.60;99.90;;;4.98;100.00;103026.75;2566820;30;137752;-41
2021/12/19 03:25:56;;;;;;;22.40;10.38;;;6.60;99.90;;;5.02;100.00;103020.09;2568077;30;137269;-41
2021/12/19 03:28:25;;;;;;;22.23;10.50;;;6.70;99.90;;;5.06;100.00;103025.31;2567683;30;137544;-40
2021/12/19 03:30:52;;;;;;;20.08;9.30;;;6.70;99.90;;;5.06;100.00;103025.31;2567217;30;138024;-41
2021/12/19 03:33:20;;;;;;;19.52;9.85;;;6.70;99.90;;;5.04;100.00;103023.56;2565818;30;138077;-40
2021/12/19 03:35:48;;;;;;;;;;;6.70;99.90;;;5.03;100.00;103021.81;2565171;30;139508;-40
2021/12/19 03:38:17;;;;;;;19.88;9.40;;;6.70;99.90;;;5.03;100.00;103021.81;2568264;30;137196;-41
2021/12/19 03:50:16;;;;;;;19.02;8.07;;;6.70;99.90;;;4.99;100.00;103006.81;2568428;30;137255;-38
2021/12/19 03:52:44;;;;;;;18.58;9.45;;;6.60;99.90;;;5.02;100.00;103003.88;2570816;30;137506;-38
2021/12/19 03:55:13;;;;;;;20.17;10.27;;;6.70;99.90;;;5.09;100.00;103000.69;2568711;30;138498;-38
2021/12/19 03:57:40;;;;;;;19.58;9.27;;;6.70;99.90;;;5.04;100.00;103003.75;2568245;30;138744;-38
2021/12/19 04:00:14;;;;;;;16.80;8.43;;;6.70;99.90;;;4.99;100.00;102996.00;2569218;30;138328;-38
2021/12/19 04:02:41;;;;;;;18.25;9.30;;;6.70;99.90;;;5.04;100.00;102996.53;2570026;30;137567;-38
2021/12/19 04:05:09;;;;;;;16.95;8.60;;;6.70;99.90;;;5.06;100.00;102993.69;2568409;30;138392;-38
2021/12/19 04:07:36;;;;;;;19.13;9.55;;;6.70;99.90;;;5.02;100.00;102992.19;2569612;30;137342;-38
2021/12/19 04:10:05;;;;;;;16.83;8.23;;;6.70;99.90;;;5.02;100.00;102979.53;2570598;30;137158;-38
2021/12/19 04:12:32;;;;;;;18.08;8.70;;;6.70;99.90;;;5.06;100.00;102980.16;2568904;30;137579;-38
2021/12/19 04:15:00;;;;;;;17.02;9.18;;;6.70;99.90;;;5.04;100.00;102966.75;2568931;30;139237;-38
2021/12/19 04:17:27;;;;;;;19.23;8.43;;;6.70;99.90;;;5.09;100.00;102970.94;2568718;30;138138;-38
2021/12/19 04:19:55;;;;;;;16.75;8.25;;;6.70;99.90;;;5.10;100.00;102959.13;2566363;30;137482;-38
2021/12/19 04:22:22;;;;;;;18.65;8.55;;;6.70;99.90;;;5.03;100.00;102945.22;2571831;30;137526;-38
2021/12/19 04:24:50;;;;;;;15.35;8.07;;;6.70;99.90;;;5.03;100.00;102939.81;2568445;30;138202;-38
2021/12/19 04:27:19;;;;;;;15.45;7.82;;;6.70;99.90;;;5.03;100.00;102946.06;2570707;30;137611;-38
2021/12/19 04:29:47;;;;;;;16.20;8.38;;;6.70;99.90;;;5.02;100.00;102949.75;2568618;30;137548;-38
2021/12/19 04:32:17;;;;;;;16.15;7.63;;;6.70;99.90;;;5.03;100.00;102943.38;2567829;30;137405;-38
2021/12/19 04:34:45;;;;;;;18.55;8.13;;;6.70;99.90;;;5.03;100.00;102940.66;2568669;30;138548;-38
2021/12/19 04:37:38;;;;;;;14.15;7.40;;;6.70;99.90;;;5.00;100.00;102932.78;2569443;30;137728;-38
2021/12/19 04:40:24;;;;;;;17.27;8.20;;;6.70;99.90;;;5.09;100.00;102933.91;2571334;30;137585;-38
2021/12/19 04:53:51;;;;;;;16.90;6.75;;;6.70;99.90;;;5.07;100.00;102935.03;2569723;30;136673;-38
2021/12/19 05:04:03;;;;;;;16.77;6.78;;;6.70;99.90;;;5.02;100.00;102936.22;2568246;30;138564;-38
2021/12/19 05:14:32;;;;;;;16.63;7.40;;;6.60;99.90;;;5.00;100.00;102935.50;2567104;30;137392;-38
2021/12/19 05:17:08;;;;;;;13.75;6.82;;;6.60;99.90;;;4.96;100.00;102930.47;2568669;30;137391;-38
2021/12/19 05:19:47;;;;;;;15.63;6.70;;;6.60;99.90;;;5.00;100.00;102930.09;2570012;30;138677;-38
2021/12/19 05:22:15;;;;;;;18.58;7.55;;;6.60;99.90;;;4.98;100.00;102925.81;2569138;30;138761;-38
2021/12/19 05:24:47;;;;;;;17.75;7.55;;;6.60;99.90;;;4.92;100.00;102916.31;2570595;30;138395;-38
2021/12/19 05:27:15;;;;;;;17.42;7.22;;;6.60;99.90;;;4.95;100.00;102926.91;2567573;30;138723;-38
2021/12/19 05:29:42;;;;;;;17.90;7.55;;;6.60;99.90;;;4.93;100.00;102928.88;2568595;30;137907;-38
2021/12/19 05:32:10;;;;;;;17.48;7.63;;;6.60;99.90;;;4.97;100.00;102924.94;2568990;30;137874;-38
2021/12/19 05:34:37;;;;;;;20.52;7.85;;;6.60;99.90;;;4.99;100.00;102927.53;2568241;30;137274;-38
2021/12/19 05:45:23;;;;;;;20.10;8.43;;;6.60;99.90;;;4.88;100.00;102915.69;2571402;30;136910;-40
2021/12/19 05:47:52;;;;;;;22.38;7.88;;;6.60;99.90;;;4.87;100.00;102923.97;2569310;30;138509;-38
2021/12/19 05:50:22;;;;;;;23.02;7.63;;;6.60;99.90;;;4.87;100.00;102918.53;2570458;30;138252;-38
2021/12/19 05:52:52;;;;;;;22.50;8.70;;;6.60;99.90;;;4.84;100.00;102918.78;2569861;30;138421;-38
2021/12/19 05:55:20;;;;;;;17.85;7.45;;;6.50;99.90;;;4.81;100.00;102908.22;2569840;30;136672;-38
2021/12/19 05:57:48;;;;;;;21.35;7.70;;;6.50;99.90;;;4.87;100.00;102923.97;2567367;30;137393;-38
2021/12/19 06:00:18;;;;;;;22.58;7.50;;;6.50;99.90;;;4.84;100.00;102924.22;2567922;30;136816;-38
2021/12/19 06:02:46;;;;;;;18.95;7.30;;;6.50;99.90;;;4.81;100.00;102921.75;2568845;30;139071;-38
2021/12/19 06:05:14;;;;;;;25.00;8.25;;;6.50;99.90;;;4.77;100.00;102912.13;2567251;30;137493;-38
2021/12/19 06:07:42;;;;;;;21.30;7.32;;;6.50;99.90;;;4.78;100.00;102916.59;2568959;30;138928;-38
2021/12/19 06:10:11;;;;;;;21.63;7.07;;;6.50;99.90;;;4.73;100.00;102914.25;2570809;30;137443;-38
2021/12/19 06:12:39;;;;;;;22.92;8.25;;;6.40;99.90;;;4.71;100.00;102900.81;2572647;30;138406;-38
2021/12/19 06:15:09;;;;;;;19.92;7.57;;;6.40;99.90;;;4.70;100.00;102895.56;2568143;30;137392;-38
2021/12/19 06:17:42;;;;;;;22.55;8.65;;;6.50;99.90;;;4.79;100.00;102896.66;2571052;30;138337;-38
2021/12/19 06:20:10;;;;;;;21.85;8.68;;;6.50;99.90;;;4.79;100.00;102902.09;2570505;30;137526;-38
2021/12/19 06:22:40;;;;;;;20.05;8.10;;;6.50;99.90;;;4.81;100.00;102897.41;2569843;30;139581;-38
2021/12/19 06:25:08;;;;;;;21.15;8.73;;;6.50;99.90;;;4.75;100.00;102898.75;2567644;30;138326;-38
2021/12/19 06:27:37;;;;;;;24.52;9.15;;;6.40;99.90;;;4.70;100.00;102901.81;2569668;30;138267;-38
2021/12/19 06:30:06;;;;;;;23.92;9.30;;;6.40;99.90;;;4.70;100.00;102892.84;2568719;30;136914;-38
2021/12/19 06:32:34;;;;;;;20.42;8.57;;;6.40;99.90;;;4.63;100.00;102868.16;2568485;30;137402;-38
2021/12/19 06:35:07;;;;;;;19.23;8.52;;;6.40;99.90;;;4.74;100.00;102894.31;2571172;30;138374;-38
2021/12/19 06:37:38;;;;;;;20.17;7.72;;;6.40;99.90;;;4.66;100.00;102900.34;2568842;30;138641;-38
2021/12/19 06:40:12;;;;;;;19.98;8.02;;;6.40;99.90;;;4.65;100.00;102903.19;2567854;30;137651;-38
2021/12/19 06:42:40;;;;;;;20.60;8.40;;;6.30;99.90;;;4.60;100.00;102900.84;2569394;30;137692;-38
2021/12/19 06:45:09;;;;;;;21.75;8.15;;;6.30;99.90;;;4.56;100.00;102900.22;2569317;30;137459;-38
2021/12/19 06:47:38;;;;;;;18.70;7.15;;;6.30;99.90;;;4.58;100.00;102892.00;2566706;30;140045;-38
2021/12/19 06:50:08;;;;;;;17.27;7.03;;;6.20;99.90;;;4.53;100.00;102883.41;2568132;30;137784;-38
2021/12/19 06:52:36;;;;;;;18.17;6.32;;;6.30;99.90;;;4.57;100.00;102888.41;2568078;30;137389;-38
2021/12/19 06:55:04;;;;;;;19.10;7.25;;;6.20;99.90;;;4.46;100.00;102877.59;2572134;30;137147;-38
2021/12/19 06:57:32;;;;;;;16.52;6.10;;;6.20;99.90;;;4.54;100.00;102896.78;2570328;30;136753;-38
2021/12/19 07:00:02;;;;;;;14.75;6.15;;;6.20;99.90;;;4.52;100.00;102898.75;2569933;30;137018;-38
2021/12/19 07:02:30;;;;;;;14.05;5.75;;;6.20;99.90;;;4.51;100.00;102902.41;2569036;30;139314;-38
2021/12/19 07:04:57;;;;;;;14.93;5.97;;;6.20;99.90;;;4.49;100.00;102888.16;2570626;30;137514;-38
2021/12/19 07:07:25;;;;;;;15.32;5.82;;;6.20;99.90;;;4.48;100.00;102891.84;2570081;30;138859;-38
2021/12/19 07:09:52;;;;;;;14.13;6.43;;;6.20;99.90;;;4.52;100.00;102887.06;2569893;30;137391;-38
2021/12/19 07:12:20;;;;;;;16.30;5.95;;;6.10;99.90;;;4.53;100.00;102884.25;2569850;30;137539;-38
2021/12/19 07:14:47;;;;;;;13.93;6.00;;;6.20;99.90;;;4.53;100.00;102886.09;2566989;30;137433;-37
2021/12/19 07:17:14;;;;;;;12.32;5.07;;;6.20;99.90;;;4.51;100.00;102888.03;2570643;30;138252;-38
2021/12/19 07:19:42;;;;;;;15.93;6.38;;;6.20;99.90;;;4.53;100.00;102886.94;2570471;30;136847;-38
2021/12/19 07:22:09;;;;;;;15.77;5.78;;;6.20;99.90;;;4.49;100.00;102881.88;2568656;30;138280;-38
2021/12/19 07:24:37;;;;;;;15.30;6.18;;;6.20;99.90;;;4.48;100.00;102889.16;2569631;30;137309;-38
2021/12/19 07:27:05;;;;;;;15.10;5.88;;;6.20;99.90;;;4.51;100.00;102888.91;2567722;30;138456;-38
2021/12/19 07:29:32;;;;;;;12.82;5.13;;;6.20;99.90;;;4.51;100.00;102879.91;2568817;30;137044;-38
2021/12/19 07:32:00;;;;;;;12.65;5.80;;;6.20;99.90;;;4.47;100.00;102880.16;2568909;30;138304;-38
2021/12/19 07:34:33;;;;;;;11.43;5.82;;;6.20;99.90;;;4.47;100.00;102872.06;2568686;30;137029;-38
2021/12/19 07:37:01;;;;;;;9.85;4.78;;;6.10;99.90;;;4.42;100.00;102871.56;2568457;30;138498;-38
2021/12/19 07:42:09;;;;;;;12.35;5.22;;;6.10;99.90;;;4.44;100.00;102857.94;2569554;30;138444;-38
2021/12/19 07:44:38;;;;;;;12.90;5.30;;;6.10;99.90;;;4.46;100.00;102859.53;2567022;30;137551;-38
2021/12/19 07:47:07;;;;;;;12.70;4.53;;;6.10;99.90;;;4.47;100.00;102858.53;2570740;30;136680;-38
2021/12/19 07:49:35;;;;;;;9.27;4.82;;;6.10;99.90;;;4.35;100.00;102856.81;2568957;30;137639;-38
2021/12/19 07:52:03;;;;;;;;;;;6.10;99.90;;;4.41;100.00;102866.31;2570094;30;138403;-38
2021/12/19 07:54:31;;;;;;;11.73;5.20;;;6.10;99.90;;;4.40;100.00;102868.13;2565821;30;137252;-38
2021/12/19 07:56:58;;;;;;;10.23;4.38;;;6.10;99.90;;;4.40;100.00;102849.22;2568325;30;138443;-38
2021/12/19 07:59:26;;;;;;;12.15;4.88;;;6.10;99.90;;;4.46;100.00;102858.69;2568436;30;136938;-38
2021/12/19 08:01:57;;;;;;;11.55;4.88;;;6.10;99.90;;;4.42;100.00;102859.91;2569221;30;138326;-38
2021/12/19 08:04:24;;;;;;;10.13;4.82;;;6.10;99.90;;;4.52;100.00;102860.88;2566223;30;138765;-37
2021/12/19 08:06:52;;;;;;;11.40;4.60;;;6.10;99.90;;;4.46;100.00;102855.97;2569383;30;137850;-38
2021/12/19 08:09:35;;;;;;;13.25;5.03;;;6.10;99.90;;;4.47;100.00;102853.13;2568732;30;136868;-38
2021/12/19 08:12:07;;;;;;;10.43;5.40;;;6.10;99.90;;;4.46;100.00;102859.53;2566668;30;138129;-38
2021/12/19 08:14:35;;;;;;;14.50;5.60;;;6.10;99.90;;;4.45;100.00;102855.09;2569077;30;137580;-38
2021/12/19 08:17:02;;;;;;;10.23;5.22;;;6.10;99.90;;;4.47;100.00;102850.44;2569112;30;137221;-38
2021/12/19 08:19:30;;;;;;;14.65;5.72;;;6.10;99.90;;;4.52;100.00;102849.22;2568049;30;137473;-38
2021/12/19 08:21:57;;;;;;;10.52;5.13;;;6.20;99.90;;;4.52;100.00;102854.63;2570195;30;137769;-37
2021/12/19 08:24:25;;;;;;;12.20;4.82;;;6.10;99.90;;;4.52;100.00;102846.53;2567007;30;137753;-37
2021/12/19 08:26:52;;;;;;;10.57;4.80;;;6.20;99.90;;;4.57;100.00;102852.41;2567938;30;137128;-38
2021/12/19 08:29:20;;;;;;;11.88;4.78;;;6.20;99.90;;;4.61;100.00;102851.19;2568940;30;137741;-38
2021/12/19 08:31:48;;;;;;;10.77;4.95;;;6.20;99.90;;;4.60;100.00;102850.31;2570811;30;138395;-38
2021/12/19 08:34:16;;;;;;;11.05;4.60;;;6.20;99.90;;;4.65;100.00;102849.09;2568583;30;137988;-37
2021/12/19 08:36:44;;;;;;;;;;;6.20;99.90;;;4.67;100.00;102847.13;2570598;30;138613;-38
2021/12/19 08:39:13;;;;;;;10.73;5.05;;;6.30;99.90;;;4.70;100.00;102838.78;2568527;30;137898;-37
2021/12/19 08:41:41;;;;;;;10.40;4.80;;;6.30;99.90;;;4.69;100.00;102837.91;2570218;30;138527;-38
2021/12/19 08:44:08;;;;;;;14.27;5.32;;;6.30;99.90;;;4.67;100.00;102837.16;2569526;30;137622;-38
2021/12/19 08:46:37;;;;;;;11.32;5.00;;;6.30;99.90;;;4.68;100.00;102841.59;2568792;30;138425;-38
2021/12/19 08:49:05;;;;;;;12.10;5.38;;;6.30;99.90;;;4.69;100.00;102842.47;2570228;30;138445;-38
2021/12/19 08:51:34;;;;;;;14.18;5.38;;;6.30;99.90;;;4.70;100.00;102834.22;2569380;30;138318;-38
2021/12/19 08:54:02;;;;;;;11.65;5.28;;;6.30;99.90;;;4.74;100.00;102835.66;2569418;30;137366;-38
2021/12/19 08:56:30;;;;;;;13.57;5.18;;;6.40;99.90;;;4.73;100.00;102831.25;2568596;30;138509;-38
2021/12/19 08:58:58;;;;;;;12.45;5.15;;;6.30;99.90;;;4.70;100.00;102834.22;2569556;30;136894;-38
2021/12/19 09:01:27;;;;;;;11.73;5.20;;;6.30;99.90;;;4.80;100.00;102830.78;2569234;30;137137;-38
2021/12/19 09:03:55;;;;;;;13.20;5.85;;;6.40;99.90;;;4.81;100.00;102819.81;2567229;30;137698;-38
2021/12/19 09:06:23;;;;;;;15.45;5.60;;;6.40;99.90;;;4.90;100.00;102826.31;2569997;30;138442;-38
2021/12/19 09:08:50;;;;;;;10.85;5.00;;;6.50;99.90;;;4.89;100.00;102825.44;2567495;30;137389;-38
2021/12/19 09:11:18;;;;;;;11.73;4.75;;;6.50;99.90;;;4.89;100.00;102822.75;2568316;30;139023;-38
2021/12/19 09:13:46;;;;;;;11.05;4.93;;;6.50;99.90;;;4.86;100.00;102825.69;2568387;30;137973;-38
2021/12/19 09:16:14;;;;;;;13.15;5.30;;;6.50;99.90;;;4.86;100.00;102814.03;2571224;30;138334;-38
2021/12/19 09:18:53;;;;;;;10.10;4.60;;;6.50;99.90;;;4.96;100.00;102825.81;2569733;30;138435;-38
2021/12/19 09:21:21;;;;;;;9.77;4.38;;;6.50;99.90;;;5.02;100.00;102825.31;2568581;30;139055;-38
2021/12/19 09:23:49;;;;;;;;;;;6.60;99.90;;;5.03;100.00;102829.72;2570429;30;137372;-38
2021/12/19 09:26:16;;;;;;;13.40;5.28;;;6.60;99.90;;;4.96;100.00;102825.81;2567299;30;137094;-38
2021/12/19 09:28:44;;;;;;;9.23;4.30;;;6.60;99.90;;;5.03;100.00;102826.19;2569281;30;136832;-38
2021/12/19 09:31:12;;;;;;;8.95;4.57;;;6.60;99.90;;;5.03;100.00;102823.47;2567213;30;137592;-38
2021/12/19 09:33:39;;;;;;;9.75;4.10;;;6.60;99.90;;;5.03;100.00;102820.75;2569223;30;138174;-38
2021/12/19 09:36:07;;;;;;;11.55;4.55;;;6.70;99.90;;;5.04;100.00;102817.94;2566328;30;138462;-38
2021/12/19 09:38:36;;;;;;;11.00;4.53;;;6.70;99.90;;;5.10;100.00;102824.66;2568868;30;137612;-38
2021/12/19 09:41:17;;;;;;;9.15;4.60;;;6.70;99.90;;;5.11;100.00;102820.13;2568380;30;138271;-38
2021/12/19 09:43:45;;;;;;;7.13;3.83;;;6.70;99.90;;;5.14;100.00;102826.13;2569380;30;137165;-38
2021/12/19 09:46:20;;;;;;;9.63;4.20;;;6.70;99.90;;;5.20;100.00;102821.22;2567142;30;138425;-38
2021/12/19 09:48:49;;;;;;;8.45;4.45;;;6.80;99.90;;;5.23;100.00;102819.09;2569914;30;137636;-40
2021/12/19 09:51:18;;;;;;;8.38;4.03;;;6.80;99.90;;;5.13;100.00;102800.06;2569455;30;137291;-41
2021/12/19 09:53:46;;;;;;;9.60;3.90;;;6.90;99.90;;;5.29;100.00;102821.28;2567154;30;138092;-40
2021/12/19 09:56:14;;;;;;;7.85;3.70;;;6.90;99.90;;;5.29;100.00;102812.31;2567364;30;137822;-41
2021/12/19 09:58:42;;;;;;;9.77;4.28;;;6.90;99.90;;;5.34;100.00;102820.91;2566958;30;137652;-40
2021/12/19 10:01:12;;;;;;;9.40;4.47;;;6.90;99.90;;;5.32;100.00;102809.34;2568551;30;139116;-40
2021/12/19 10:03:40;;;;;;;8.05;3.92;;;6.90;99.90;;;5.39;100.00;102807.00;2568466;30;137494;-40
2021/12/19 10:06:25;;;;;;;;;;;7.00;99.90;;;5.43;100.00;102809.28;2568323;30;138508;-41
2021/12/19 10:09:18;;;;;;;6.72;3.53;;;7.00;99.90;;;5.41;100.00;102802.31;2569010;30;136682;-40
2021/12/19 10:12:00;;;;;;;7.20;3.65;;;7.00;99.90;;;5.48;100.00;102800.78;2568629;30;137332;-40
2021/12/19 10:14:37;;;;;;;7.78;3.40;;;7.00;99.90;;;5.53;100.00;102789.59;2567225;30;136922;-41
2021/12/19 10:17:15;;;;;;;8.45;3.38;;;7.10;99.90;;;5.47;100.00;102790.94;2567657;30;138203;-40
2021/12/19 10:19:55;;;;;;;6.85;3.33;;;7.10;99.90;;;5.50;100.00;102785.28;2566006;30;137484;-40
2021/12/19 10:22:35;;;;;;;6.38;3.38;;;7.10;99.90;;;5.49;100.00;102785.41;2568475;30;139000;-41
2021/12/19 10:25:25;;;;;;;8.15;3.65;;;7.10;99.90;;;5.58;100.00;102779.22;2566704;30;137985;-41
2021/12/19 10:27:57;;;;;;;5.63;2.92;;;7.10;99.90;;;5.59;100.00;102779.09;2567136;30;137477;-40
2021/12/19 10:30:31;;;;;;;6.85;3.38;;;7.10;99.90;;;5.60;100.00;102767.28;2566877;30;138534;-41
2021/12/19 10:33:07;;;;;;;5.93;3.20;;;7.20;99.90;;;5.66;100.00;102767.72;2566974;30;138654;-41
2021/12/19 10:35:50;;;;;;;5.53;2.78;;;7.20;99.90;;;5.66;100.00;102765.84;2567679;30;138519;-41
2021/12/19 10:38:41;;;;;;;6.60;3.22;;;7.20;99.90;;;5.65;100.00;102764.16;2568131;30;139278;-41
2021/12/19 10:41:20;;;;;;;6.07;3.00;;;7.20;99.90;;;5.67;100.00;102758.59;2568263;30;138256;-40
2021/12/19 10:44:03;;;;;;;6.75;2.85;;;7.30;99.90;;;5.61;100.00;102762.69;2566242;30;137401;-40
2021/12/19 10:46:41;;;;;;;5.35;2.60;;;7.20;99.90;;;5.66;100.00;102752.31;2567744;30;137632;-40
2021/12/19 10:49:33;;;;;;;5.35;2.55;;;7.20;99.90;;;5.66;100.00;102746.06;2568078;30;137868;-40
2021/12/19 10:52:04;;;;;;;6.70;2.90;;;7.20;99.90;;;5.66;100.00;102741.47;2568506;30;137586;-40
2021/12/19 10:54:33;;;;;;;5.32;2.72;;;7.30;99.90;;;5.65;100.00;102741.63;2566308;30;139114;-40
2021/12/19 10:57:13;;;;;;;5.45;2.65;;;7.20;99.90;;;5.61;100.00;102733.78;2568510;30;136998;-40
2021/12/19 10:59:44;;;;;;;5.75;2.72;;;7.20;99.90;;;5.64;100.00;102734.50;2567341;30;138476;-40
2021/12/19 11:02:14;;;;;;;6.20;3.00;;;7.20;99.90;;;5.60;100.00;102732.06;2567868;30;137082;-41
2021/12/19 11:04:41;;;;;;;5.32;2.85;;;7.20;99.90;;;5.63;100.00;102730.09;2566810;30;137497;-40
2021/12/19 11:07:09;;;;;;;6.10;2.92;;;7.20;99.90;;;5.64;100.00;102724.50;2566246;30;137589;-40
2021/12/19 11:09:39;;;;;;;4.57;2.15;;;7.20;99.90;;;5.54;100.00;102719.03;2568263;30;137647;-40
2021/12/19 11:12:10;;;;;;;6.57;2.70;;;7.20;99.90;;;5.56;100.00;102724.31;2568503;30;137200;-41
2021/12/19 11:14:43;;;;;;;4.95;2.90;;;7.20;99.90;;;5.55;100.00;102712.63;2567436;30;137496;-40
2021/12/19 11:17:22;;;;;;;5.70;2.30;;;7.20;99.90;;;5.59;100.00;102708.69;2568531;30;137437;-41
2021/12/19 11:19:53;;;;;;;5.30;2.80;;;7.20;99.90;;;5.65;100.00;102704.56;2568371;30;138382;-40
2021/12/19 11:22:27;;;;;;;3.95;2.20;;;7.20;99.90;;;5.60;100.00;102704.97;2568637;30;138421;-41
2021/12/19 11:25:04;;;;;;;6.18;1.65;;;7.20;99.90;;;5.56;100.00;102698.09;2566333;30;137365;-41
2021/12/19 11:27:33;;;;;;;4.75;2.03;;;7.20;99.90;;;5.64;100.00;102696.59;2567735;30;137020;-41
2021/12/19 11:30:02;;;;;;;2.65;1.10;;;7.20;99.90;;;5.58;100.00;102688.00;2567041;30;137940;-40
2021/12/19 11:33:09;;;;;;;3.85;1.73;;;7.20;99.90;;;5.57;100.00;102682.72;2568812;30;137557;-40